createdAt,value
2019-03-12T00:00:49.009Z,2.47
2019-03-12T00:03:15.627Z,1.50
2019-03-12T00:05:43.231Z,2.27
2019-03-12T00:08:09.933Z,2.15
2019-03-12T00:10:36.848Z,2.00
2019-03-12T00:13:03.968Z,2.60
2019-03-12T00:15:32.542Z,1.95
2019-03-12T00:18:01.152Z,2.25
2019-03-12T00:20:28.679Z,2.77
2019-03-12T00:22:55.302Z,3.30
2019-03-12T00:25:22.419Z,2.50
2019-03-12T00:27:49.627Z,1.90
2019-03-12T00:30:16.295Z,1.92
2019-03-12T00:32:43.663Z,3.45
2019-03-12T00:35:10.286Z,2.15
2019-03-12T00:37:37.207Z,2.60
2019-03-12T00:40:04.760Z,2.40
2019-03-12T00:42:31.704Z,2.37
2019-03-12T00:44:58.383Z,2.40
2019-03-12T00:47:25.019Z,2.55
2019-03-12T00:49:51.951Z,2.20
2019-03-12T00:52:19.607Z,2.85
2019-03-12T00:54:46.835Z,2.30
2019-03-12T00:57:14.806Z,2.65
2019-03-12T00:59:41.435Z,2.10
2019-03-12T01:02:08.387Z,2.98
2019-03-12T01:04:35.466Z,2.58
2019-03-12T01:07:03.408Z,1.92
2019-03-12T01:09:31.063Z,2.02
2019-03-12T01:11:58.926Z,1.62
2019-03-12T01:14:25.895Z,1.85
2019-03-12T01:16:53.535Z,2.80
2019-03-12T01:19:20.478Z,1.72
2019-03-12T01:21:47.212Z,2.05
2019-03-12T01:24:14.166Z,2.33
2019-03-12T01:26:41.210Z,2.12
2019-03-12T01:29:08.160Z,2.77
2019-03-12T01:31:35.511Z,2.50
2019-03-12T01:34:02.462Z,2.92
2019-03-12T01:36:29.810Z,2.22
2019-03-12T01:38:57.887Z,2.40
2019-03-12T01:41:26.375Z,2.40
2019-03-12T01:43:53.922Z,2.67
2019-03-12T01:46:20.711Z,1.85
2019-03-12T01:48:47.711Z,2.47
2019-03-12T01:51:14.650Z,2.50
2019-03-12T01:53:41.618Z,2.67
2019-03-12T01:56:08.795Z,2.30
2019-03-12T01:58:37.843Z,2.42
2019-03-12T02:01:04.891Z,3.10
2019-03-12T02:03:36.027Z,2.67
2019-03-12T02:06:03.794Z,2.45
2019-03-12T02:08:30.438Z,3.08
2019-03-12T02:10:57.058Z,2.80
2019-03-12T02:13:24.631Z,2.15
2019-03-12T02:15:51.609Z,2.15
2019-03-12T02:18:20.034Z,2.40
2019-03-12T02:20:47.735Z,3.00
2019-03-12T02:23:14.467Z,2.45
2019-03-12T02:25:41.543Z,2.40
2019-03-12T02:28:08.263Z,2.40
2019-03-12T02:30:34.911Z,2.33
2019-03-12T02:33:01.636Z,1.95
2019-03-12T02:35:28.611Z,2.35
2019-03-12T02:37:55.435Z,2.77
2019-03-12T02:40:23.887Z,2.20
2019-03-12T02:42:50.500Z,3.47
2019-03-12T02:45:18.204Z,2.05
2019-03-12T02:47:45.353Z,2.42
2019-03-12T02:50:12.402Z,2.50
2019-03-12T02:52:41.798Z,2.60
2019-03-12T02:55:08.843Z,2.87
2019-03-12T02:57:35.815Z,2.58
2019-03-12T03:00:03.420Z,2.62
2019-03-12T03:02:30.775Z,2.50
2019-03-12T03:04:59.505Z,3.15
2019-03-12T03:08:01.122Z,3.62
2019-03-12T03:10:28.312Z,3.30
2019-03-12T03:12:55.376Z,3.10
2019-03-12T03:15:23.195Z,3.58
2019-03-12T03:17:50.027Z,4.37
2019-03-12T03:20:19.215Z,3.22
2019-03-12T03:22:47.629Z,2.55
2019-03-12T03:25:15.085Z,3.45
2019-03-12T03:27:42.336Z,3.35
2019-03-12T03:30:11.631Z,3.17
2019-03-12T03:32:38.394Z,3.33
2019-03-12T03:35:05.485Z,3.00
2019-03-12T03:37:32.567Z,3.12
2019-03-12T03:39:59.831Z,4.08
2019-03-12T03:42:26.613Z,3.80
2019-03-12T03:44:53.608Z,4.90
2019-03-12T03:47:22.096Z,4.50
2019-03-12T03:49:49.345Z,6.35
2019-03-12T03:52:16.295Z,5.03
2019-03-12T03:54:42.956Z,6.28
2019-03-12T03:57:09.585Z,6.05
2019-03-12T03:59:36.305Z,6.30
2019-03-12T04:02:02.953Z,6.45
2019-03-12T04:04:30.020Z,7.05
2019-03-12T04:06:57.265Z,7.30
2019-03-12T04:09:24.320Z,8.45
2019-03-12T04:11:51.265Z,7.75
2019-03-12T04:14:17.899Z,8.60
2019-03-12T04:16:44.537Z,10.32
2019-03-12T04:19:11.297Z,9.05
2019-03-12T04:21:38.404Z,9.45
2019-03-12T04:24:05.056Z,10.45
2019-03-12T04:26:32.028Z,10.50
2019-03-12T04:29:00.671Z,11.48
2019-03-12T04:31:27.325Z,10.43
2019-03-12T04:34:13.956Z,10.38
2019-03-12T04:36:40.979Z,12.18
2019-03-12T04:39:07.611Z,13.80
2019-03-12T04:41:36.537Z,13.65
2019-03-12T04:44:03.460Z,15.03
2019-03-12T04:46:30.576Z,13.93
2019-03-12T04:48:57.831Z,13.65
2019-03-12T04:51:26.107Z,13.58
2019-03-12T04:53:54.575Z,12.05
2019-03-12T04:56:21.676Z,17.77
2019-03-12T04:58:48.590Z,15.25
2019-03-12T05:01:15.235Z,12.50
2019-03-12T05:03:42.155Z,13.98
2019-03-12T05:06:09.099Z,12.70
2019-03-12T05:08:36.353Z,14.53
2019-03-12T05:11:05.186Z,13.18
2019-03-12T05:13:32.390Z,12.80
2019-03-12T05:15:59.002Z,13.25
2019-03-12T05:18:26.026Z,12.75
2019-03-12T05:20:54.354Z,12.63
2019-03-12T05:23:21.351Z,13.00
2019-03-12T05:25:48.134Z,13.85
2019-03-12T05:28:14.747Z,17.85
2019-03-12T05:30:41.829Z,14.78
2019-03-12T05:33:08.574Z,15.30
2019-03-12T05:35:35.200Z,13.83
2019-03-12T05:38:03.102Z,13.22
2019-03-12T05:40:30.075Z,13.90
2019-03-12T05:42:57.379Z,12.90
2019-03-12T05:45:24.384Z,17.27
2019-03-12T05:47:51.263Z,15.78
2019-03-12T05:50:20.055Z,14.70
2019-03-12T05:52:49.163Z,14.28
2019-03-12T05:55:16.703Z,14.95
2019-03-12T05:57:43.751Z,15.32
2019-03-12T06:00:11.196Z,14.65
2019-03-12T06:02:39.384Z,15.15
2019-03-12T06:05:06.403Z,13.03
2019-03-12T06:07:33.679Z,13.18
2019-03-12T06:10:00.624Z,13.55
2019-03-12T06:12:27.611Z,15.78
2019-03-12T06:14:54.925Z,13.40
2019-03-12T06:17:22.280Z,14.05
2019-03-12T06:19:49.545Z,14.73
2019-03-12T06:22:16.644Z,15.28
2019-03-12T06:24:44.139Z,15.70
2019-03-12T06:27:12.111Z,13.72
2019-03-12T06:29:40.019Z,13.15
2019-03-12T06:32:19.403Z,13.28
2019-03-12T06:35:21.115Z,13.90
2019-03-12T06:37:58.007Z,12.95
2019-03-12T06:40:42.707Z,13.85
2019-03-12T06:43:32.362Z,14.45
2019-03-12T06:46:11.109Z,12.23
2019-03-12T06:48:57.348Z,14.03
2019-03-12T06:51:49.583Z,11.75
2019-03-12T06:54:34.428Z,14.58
2019-03-12T06:57:37.444Z,13.22
2019-03-12T07:00:32.455Z,13.20
2019-03-12T07:03:33.699Z,12.90
2019-03-12T07:06:22.539Z,12.50
2019-03-12T07:09:13.787Z,14.38
2019-03-12T07:11:53.526Z,12.30
2019-03-12T07:14:37.488Z,13.88
2019-03-12T07:17:09.123Z,12.80
2019-03-12T07:20:04.659Z,12.80
2019-03-12T07:22:41.208Z,13.08
2019-03-12T07:25:25.802Z,11.00
2019-03-12T07:28:11.855Z,11.08
2019-03-12T07:30:46.000Z,10.70
2019-03-12T07:33:32.143Z,11.60
2019-03-12T07:36:22.656Z,9.95
2019-03-12T07:38:55.559Z,8.93
2019-03-12T07:41:32.496Z,9.45
2019-03-12T07:44:26.587Z,8.58
2019-03-12T07:47:05.427Z,8.13
2019-03-12T07:49:51.153Z,7.90
2019-03-12T07:52:48.392Z,8.58
2019-03-12T07:55:32.560Z,6.55
2019-03-12T07:58:35.769Z,7.08
2019-03-12T08:01:15.067Z,7.55
2019-03-12T08:03:54.018Z,8.45
2019-03-12T08:06:38.710Z,8.15
2019-03-12T08:09:44.383Z,6.83
2019-03-12T08:12:24.951Z,7.50
2019-03-12T08:15:22.902Z,8.35
2019-03-12T08:17:57.395Z,8.38
2019-03-12T08:20:49.344Z,6.47
2019-03-12T08:23:25.239Z,6.62
2019-03-12T08:26:18.923Z,6.58
2019-03-12T08:29:18.287Z,5.10
2019-03-12T08:32:04.265Z,8.10
2019-03-12T08:34:38.866Z,6.42
2019-03-12T08:37:23.116Z,7.45
2019-03-12T08:40:08.458Z,7.70
2019-03-12T08:43:00.727Z,6.10
2019-03-12T08:45:34.396Z,5.87
2019-03-12T08:48:12.818Z,5.97
2019-03-12T08:50:57.939Z,5.70
2019-03-12T08:53:44.199Z,5.23
2019-03-12T08:56:39.760Z,6.10
2019-03-12T08:59:32.245Z,4.73
2019-03-12T09:02:07.471Z,5.10
2019-03-12T09:04:56.596Z,6.93
2019-03-12T09:07:38.268Z,5.40
2019-03-12T09:10:18.924Z,5.53
2019-03-12T09:13:03.977Z,6.73
2019-03-12T09:15:39.747Z,5.47
2019-03-12T09:18:28.847Z,6.80
2019-03-12T09:21:30.415Z,6.90
2019-03-12T09:24:23.192Z,7.67
2019-03-12T09:26:58.872Z,7.07
2019-03-12T09:29:44.518Z,6.80
2019-03-12T09:32:23.619Z,6.67
2019-03-12T09:35:15.602Z,7.33
2019-03-12T09:38:07.559Z,6.57
2019-03-12T09:40:54.136Z,7.87
2019-03-12T09:43:52.752Z,6.23
2019-03-12T09:46:31.324Z,5.87
2019-03-12T09:49:17.599Z,7.27
2019-03-12T09:51:53.994Z,5.70
2019-03-12T09:54:27.940Z,6.00
2019-03-12T09:57:14.111Z,5.90
2019-03-12T10:00:00.126Z,5.73
2019-03-12T10:02:58.723Z,6.13
2019-03-12T10:05:55.001Z,6.07
2019-03-12T10:08:41.368Z,5.60
2019-03-12T10:11:24.698Z,5.83
2019-03-12T10:14:04.579Z,5.50
2019-03-12T10:16:54.095Z,4.83
2019-03-12T10:19:39.167Z,5.30
2019-03-12T10:22:34.627Z,5.10
2019-03-12T10:25:21.160Z,5.30
2019-03-12T10:28:08.819Z,6.57
2019-03-12T10:30:48.016Z,6.30
2019-03-12T10:33:24.616Z,5.40
2019-03-12T10:36:10.194Z,4.77
2019-03-12T10:39:16.771Z,4.03
2019-03-12T10:41:51.395Z,4.57
2019-03-12T10:44:34.203Z,4.30
2019-03-12T10:47:09.247Z,6.30
2019-03-12T10:49:37.940Z,4.60
2019-03-12T10:52:05.191Z,7.20
2019-03-12T10:54:32.539Z,6.77
2019-03-12T10:57:00.161Z,6.10
2019-03-12T10:59:26.799Z,8.33
2019-03-12T11:01:53.753Z,7.50
2019-03-12T11:04:21.483Z,8.83
2019-03-12T11:06:48.451Z,9.33
2019-03-12T11:09:15.068Z,9.40
2019-03-12T11:11:41.707Z,10.73
2019-03-12T11:14:08.356Z,11.47
2019-03-12T11:16:34.984Z,8.93
2019-03-12T11:19:01.623Z,10.90
2019-03-12T11:21:28.733Z,12.87
2019-03-12T11:23:55.496Z,15.47
2019-03-12T11:26:22.623Z,11.23
2019-03-12T11:28:50.076Z,11.80
2019-03-12T11:31:21.849Z,13.97
2019-03-12T11:33:49.700Z,14.03
2019-03-12T11:36:16.332Z,13.80
2019-03-12T11:38:45.239Z,13.40
2019-03-12T11:41:12.328Z,13.97
2019-03-12T11:43:39.017Z,14.07
2019-03-12T11:46:06.221Z,14.10
2019-03-12T11:48:33.769Z,14.30
2019-03-12T11:51:00.422Z,13.57
2019-03-12T11:53:27.151Z,13.80
2019-03-12T11:55:55.171Z,13.80
2019-03-12T11:58:22.025Z,15.60
2019-03-12T12:00:54.711Z,14.00
2019-03-12T12:03:21.957Z,12.23
2019-03-12T12:05:50.042Z,12.53
2019-03-12T12:08:17.065Z,12.67
2019-03-12T12:10:44.143Z,12.80
2019-03-12T12:13:10.880Z,12.77
2019-03-12T12:15:37.621Z,13.60
2019-03-12T12:18:05.656Z,12.30
2019-03-12T12:20:32.300Z,12.23
2019-03-12T12:22:58.940Z,12.03
2019-03-12T12:25:25.631Z,12.87
2019-03-12T12:27:53.472Z,11.33
2019-03-12T12:30:20.488Z,11.20
2019-03-12T12:32:47.456Z,10.37
2019-03-12T12:35:15.091Z,11.47
2019-03-12T12:37:41.943Z,11.23
2019-03-12T12:40:10.043Z,11.10
2019-03-12T12:42:36.791Z,9.10
2019-03-12T12:45:03.996Z,8.87
2019-03-12T12:47:31.119Z,9.90
2019-03-12T12:49:58.511Z,9.13
2019-03-12T12:52:25.174Z,9.57
2019-03-12T12:54:52.609Z,7.50
2019-03-12T12:57:19.531Z,7.27
2019-03-12T12:59:47.560Z,8.53
2019-03-12T13:02:14.188Z,6.60
2019-03-12T13:04:41.127Z,6.20
2019-03-12T13:07:07.772Z,6.57
2019-03-12T13:09:34.403Z,6.00
2019-03-12T13:12:01.260Z,6.17
2019-03-12T13:14:40.787Z,6.03
2019-03-12T13:16:56.471Z,6.27
2019-03-12T13:19:23.655Z,7.03
2019-03-12T13:21:50.288Z,7.67
2019-03-12T13:24:16.943Z,7.10
2019-03-12T13:26:45.955Z,6.50
2019-03-12T13:29:12.968Z,6.60
2019-03-12T13:31:39.943Z,6.40
2019-03-12T13:34:07.571Z,5.67
2019-03-12T13:36:34.591Z,6.37
2019-03-12T13:39:01.249Z,5.90
2019-03-12T13:41:29.882Z,5.00
2019-03-12T13:43:56.851Z,5.50
2019-03-12T13:46:23.482Z,4.97
2019-03-12T13:48:50.132Z,5.50
2019-03-12T13:51:16.864Z,4.60
2019-03-12T13:53:43.604Z,4.87
2019-03-12T13:56:10.244Z,4.33
2019-03-12T13:58:40.619Z,5.03
2019-03-12T14:01:07.256Z,4.70
2019-03-12T14:03:33.906Z,4.80
2019-03-12T14:06:00.603Z,4.23
2019-03-12T14:08:28.544Z,4.93
2019-03-12T14:10:55.570Z,4.33
2019-03-12T14:13:22.319Z,4.80
2019-03-12T14:15:49.064Z,3.83
2019-03-12T14:18:15.708Z,4.37
2019-03-12T14:20:43.339Z,4.00
2019-03-12T14:23:10.687Z,3.50
2019-03-12T14:25:37.326Z,4.30
2019-03-12T14:28:03.983Z,4.77
2019-03-12T14:30:30.599Z,7.60
2019-03-12T14:32:57.268Z,4.47
2019-03-12T14:35:24.109Z,5.57
2019-03-12T14:37:51.347Z,7.27
2019-03-12T14:40:18.293Z,5.47
2019-03-12T14:42:45.387Z,4.80
2019-03-12T14:45:12.223Z,4.40
2019-03-12T14:47:38.851Z,3.97
2019-03-12T14:50:07.075Z,4.23
2019-03-12T14:52:35.874Z,4.73
2019-03-12T14:55:02.848Z,4.53
2019-03-12T14:57:31.303Z,5.67
2019-03-12T14:59:58.931Z,4.83
2019-03-12T15:02:26.631Z,6.00
2019-03-12T15:04:53.671Z,4.50
2019-03-12T15:07:20.646Z,4.43
2019-03-12T15:09:48.594Z,4.30
2019-03-12T15:12:15.839Z,4.90
2019-03-12T15:14:42.567Z,5.47
2019-03-12T15:17:09.524Z,4.90
2019-03-12T15:19:36.576Z,4.60
2019-03-12T15:22:03.411Z,4.57
2019-03-12T15:24:36.031Z,5.33
2019-03-12T15:27:02.531Z,5.30
2019-03-12T15:29:33.605Z,3.73
2019-03-12T15:32:04.471Z,3.53
2019-03-12T15:34:30.610Z,4.03
2019-03-12T15:36:58.295Z,3.97
2019-03-12T15:39:25.275Z,3.50
2019-03-12T15:41:52.037Z,3.93
2019-03-12T15:44:19.281Z,3.77
2019-03-12T15:46:46.307Z,3.80
2019-03-12T15:49:14.009Z,3.23
2019-03-12T15:51:40.659Z,3.60
2019-03-12T15:54:07.629Z,3.60
2019-03-12T15:56:34.679Z,2.93
2019-03-12T15:59:01.619Z,3.37
2019-03-12T16:01:28.331Z,4.23
2019-03-12T16:03:56.156Z,5.53
2019-03-12T16:06:26.095Z,3.93
2019-03-12T16:08:54.280Z,3.70
2019-03-12T16:11:21.633Z,3.97
2019-03-12T16:13:48.691Z,3.90
2019-03-12T16:16:15.777Z,4.70
2019-03-12T16:18:43.115Z,3.67
2019-03-12T16:21:10.159Z,5.47
2019-03-12T16:23:37.210Z,4.30
2019-03-12T16:26:03.943Z,4.53
2019-03-12T16:28:30.555Z,4.17
2019-03-12T16:30:58.399Z,5.80
2019-03-12T16:33:26.094Z,5.10
2019-03-12T16:35:53.163Z,4.20
2019-03-12T16:38:20.835Z,3.83
2019-03-12T16:40:47.755Z,5.03
2019-03-12T16:43:14.923Z,4.70
2019-03-12T16:45:41.998Z,6.27
2019-03-12T16:48:08.782Z,5.07
2019-03-12T16:50:35.503Z,4.13
2019-03-12T16:53:02.496Z,4.30
2019-03-12T16:55:29.327Z,4.13
2019-03-12T16:57:56.287Z,3.77
2019-03-12T17:00:22.928Z,3.60
2019-03-12T17:02:50.214Z,3.47
2019-03-12T17:05:17.931Z,3.13
2019-03-12T17:07:44.671Z,3.37
2019-03-12T17:10:11.562Z,4.37
2019-03-12T17:12:38.691Z,6.57
2019-03-12T17:15:06.326Z,5.23
2019-03-12T17:17:34.011Z,5.37
2019-03-12T17:20:00.869Z,3.37
2019-03-12T17:22:28.187Z,4.30
2019-03-12T17:24:54.832Z,3.50
2019-03-12T17:27:22.280Z,3.90
2019-03-12T17:29:50.254Z,3.70
2019-03-12T17:32:16.891Z,3.53
2019-03-12T17:34:44.008Z,3.30
2019-03-12T17:37:10.667Z,2.80
2019-03-12T17:39:38.400Z,3.30
2019-03-12T17:42:05.284Z,3.60
2019-03-12T17:44:32.349Z,4.80
2019-03-12T17:46:59.512Z,3.40
2019-03-12T17:49:26.187Z,2.90
2019-03-12T17:51:52.929Z,3.80
2019-03-12T17:54:21.132Z,3.03
2019-03-12T17:56:48.143Z,3.10
2019-03-12T17:59:14.787Z,3.23
2019-03-12T18:01:41.443Z,3.90
2019-03-12T18:04:08.752Z,3.67
2019-03-12T18:06:35.755Z,3.50
2019-03-12T18:09:04.266Z,3.50
2019-03-12T18:11:32.962Z,3.10
2019-03-12T18:13:59.978Z,2.77
2019-03-12T18:16:39.983Z,3.40
2019-03-12T18:18:56.100Z,3.00
2019-03-12T18:21:23.359Z,3.50
2019-03-12T18:23:50.717Z,3.33
2019-03-12T18:26:19.378Z,3.53
2019-03-12T18:28:46.756Z,4.00
2019-03-12T18:31:13.803Z,4.10
2019-03-12T18:33:40.811Z,3.07
2019-03-12T18:36:08.308Z,3.50
2019-03-12T18:38:35.355Z,2.87
2019-03-12T18:41:03.256Z,5.13
2019-03-12T18:43:31.080Z,8.27
2019-03-12T18:45:58.160Z,5.43
2019-03-12T18:48:24.799Z,8.90
2019-03-12T18:50:52.572Z,5.50
2019-03-12T18:53:19.583Z,6.40
2019-03-12T18:56:07.223Z,3.87
2019-03-12T18:58:34.463Z,3.30
2019-03-12T19:01:02.620Z,3.37
2019-03-12T19:03:30.001Z,2.87
2019-03-12T19:05:56.971Z,3.47
2019-03-12T19:08:23.699Z,3.03
2019-03-12T19:10:50.859Z,3.40
2019-03-12T19:13:18.371Z,3.80
2019-03-12T19:15:45.014Z,4.43
2019-03-12T19:18:12.023Z,4.30
2019-03-12T19:20:39.061Z,6.30
2019-03-12T19:23:05.732Z,4.33
2019-03-12T19:25:32.405Z,3.60
2019-03-12T19:28:00.408Z,3.50
2019-03-12T19:30:28.180Z,4.93
2019-03-12T19:33:10.923Z,6.20
2019-03-12T19:35:38.498Z,6.35
2019-03-12T19:38:05.494Z,6.72
2019-03-12T19:40:32.591Z,5.77
2019-03-12T19:42:59.754Z,6.45
2019-03-12T19:45:26.795Z,6.35
2019-03-12T19:47:53.443Z,4.40
2019-03-12T19:50:21.933Z,7.43
2019-03-12T19:52:49.271Z,9.00
2019-03-12T19:55:17.132Z,4.80
2019-03-12T19:57:44.222Z,5.00
2019-03-12T20:00:12.474Z,3.80
2019-03-12T20:02:39.908Z,3.30
2019-03-12T20:05:06.862Z,2.47
2019-03-12T20:07:33.663Z,3.37
2019-03-12T20:10:17.183Z,3.52
2019-03-12T20:13:01.915Z,3.50
2019-03-12T20:15:48.050Z,4.10
2019-03-12T20:18:33.047Z,2.40
2019-03-12T20:21:11.291Z,3.53
2019-03-12T20:23:57.446Z,2.50
2019-03-12T20:26:50.258Z,3.10
2019-03-12T20:29:30.982Z,2.80
2019-03-12T20:32:29.056Z,3.00
2019-03-12T20:35:17.920Z,2.90
2019-03-12T20:38:03.572Z,2.60
2019-03-12T20:40:48.984Z,3.10
2019-03-12T20:43:36.131Z,2.27
2019-03-12T20:46:21.416Z,2.47
2019-03-12T20:49:11.397Z,16.00
2019-03-12T20:52:05.171Z,18.43
2019-03-12T20:55:06.793Z,4.47
2019-03-12T20:57:57.938Z,3.23
2019-03-12T21:00:43.291Z,8.27
2019-03-12T21:03:30.493Z,3.10
2019-03-12T21:06:22.753Z,6.03
2019-03-12T21:09:09.644Z,2.80
2019-03-12T21:11:54.795Z,2.47
2019-03-12T21:14:39.811Z,2.47
2019-03-12T21:17:36.235Z,2.20
2019-03-12T21:20:21.047Z,2.83
2019-03-12T21:23:06.116Z,2.40
2019-03-12T21:25:56.883Z,2.72
2019-03-12T21:28:36.999Z,4.15
2019-03-12T21:31:03.655Z,2.58
2019-03-12T21:33:31.914Z,2.75
2019-03-12T21:35:59.170Z,3.08
2019-03-12T21:38:27.984Z,3.70
2019-03-12T21:40:56.050Z,3.25
2019-03-12T21:43:23.285Z,2.95
2019-03-12T21:45:50.383Z,3.22
2019-03-12T21:48:17.590Z,2.80
2019-03-12T21:50:44.571Z,4.30
2019-03-12T21:53:11.248Z,2.33
2019-03-12T21:55:39.273Z,4.20
2019-03-12T21:58:07.122Z,3.80
2019-03-12T22:00:34.773Z,3.87
2019-03-12T22:03:06.317Z,3.40
2019-03-12T22:05:34.592Z,2.33
2019-03-12T22:08:01.871Z,2.95
2019-03-12T22:10:28.703Z,3.43
2019-03-12T22:12:55.371Z,4.03
2019-03-12T22:15:22.026Z,3.20
2019-03-12T22:17:50.757Z,3.20
2019-03-12T22:20:17.372Z,3.15
2019-03-12T22:22:51.762Z,2.58
2019-03-12T22:25:18.651Z,3.03
2019-03-12T22:27:45.374Z,2.67
2019-03-12T22:30:13.970Z,3.50
2019-03-12T22:32:41.262Z,3.95
2019-03-12T22:35:08.678Z,3.50
2019-03-12T22:37:35.714Z,2.53
2019-03-12T22:40:02.342Z,2.67
2019-03-12T22:42:29.191Z,2.83
2019-03-12T22:44:56.104Z,3.53
2019-03-12T22:47:22.737Z,2.50
2019-03-12T22:49:49.371Z,3.10
2019-03-12T22:52:16.703Z,2.90
2019-03-12T22:54:44.442Z,2.95
2019-03-12T22:57:11.427Z,2.17
2019-03-12T22:59:57.504Z,2.90
2019-03-12T23:02:43.123Z,3.42
2019-03-12T23:05:29.401Z,2.30
2019-03-12T23:08:14.823Z,2.87
2019-03-12T23:10:43.741Z,3.30
2019-03-12T23:13:12.295Z,2.73
2019-03-12T23:15:39.577Z,3.20
2019-03-12T23:18:06.819Z,2.98
2019-03-12T23:20:33.671Z,2.60
2019-03-12T23:23:02.154Z,3.35
2019-03-12T23:25:29.398Z,3.40
2019-03-12T23:27:57.272Z,3.65
2019-03-12T23:30:28.187Z,3.43
2019-03-12T23:32:53.977Z,3.40
2019-03-12T23:35:20.607Z,3.40
2019-03-12T23:37:48.207Z,3.50
2019-03-12T23:40:15.577Z,3.77
2019-03-12T23:42:43.950Z,3.40
2019-03-12T23:45:11.720Z,3.43
2019-03-12T23:47:38.516Z,4.60
2019-03-12T23:50:07.301Z,4.10
2019-03-12T23:52:34.599Z,3.80
2019-03-12T23:55:01.257Z,4.20
2019-03-12T23:57:28.287Z,4.00
2019-03-12T23:59:56.580Z,6.03
